createdAt,value
2018-10-03T00:00:27.828Z,85.53
2018-10-03T00:01:08.216Z,85.25
2018-10-03T00:01:48.748Z,86.11
2018-10-03T00:02:29.178Z,85.92
2018-10-03T00:03:09.587Z,86.49
2018-10-03T00:03:50.035Z,86.11
2018-10-03T00:04:30.405Z,85.82
2018-10-03T00:05:10.828Z,85.53
2018-10-03T00:05:51.176Z,84.95
2018-10-03T00:06:31.620Z,86.3
2018-10-03T00:07:12.116Z,86.4
2018-10-03T00:07:52.471Z,85.92
2018-10-03T00:08:33.002Z,85.92
2018-10-03T00:09:13.362Z,85.72
2018-10-03T00:09:53.814Z,86.11
2018-10-03T00:10:34.300Z,86.01
2018-10-03T00:11:14.631Z,86.49
2018-10-03T00:11:55.128Z,86.21
2018-10-03T00:12:35.485Z,86.49
2018-10-03T00:13:15.944Z,85.82
2018-10-03T00:13:56.315Z,85.34
2018-10-03T00:14:36.730Z,85.53
2018-10-03T00:15:17.283Z,85.25
2018-10-03T00:15:57.711Z,85.72
2018-10-03T00:16:38.197Z,87.16
2018-10-03T00:17:18.768Z,86.4
2018-10-03T00:17:59.160Z,87.07
2018-10-03T00:18:39.519Z,86.88
2018-10-03T00:19:19.981Z,86.21
2018-10-03T00:20:00.825Z,86.4
2018-10-03T00:20:41.311Z,86.49
2018-10-03T00:21:21.661Z,86.4
2018-10-03T00:22:02.064Z,86.01
2018-10-03T00:22:42.695Z,85.92
2018-10-03T00:23:23.110Z,86.3
2018-10-03T00:24:03.511Z,85.82
2018-10-03T00:24:43.920Z,86.21
2018-10-03T00:25:24.420Z,85.15
2018-10-03T00:26:04.842Z,86.21
2018-10-03T00:26:45.194Z,85.25
2018-10-03T00:27:25.646Z,86.11
2018-10-03T00:28:06.032Z,85.05
2018-10-03T00:28:46.532Z,85.05
2018-10-03T00:29:26.888Z,85.34
2018-10-03T00:30:07.307Z,85.44
2018-10-03T00:30:48.157Z,85.92
2018-10-03T00:31:28.845Z,85.53
2018-10-03T00:32:09.411Z,85.44
2018-10-03T00:32:49.808Z,85.44
2018-10-03T00:33:30.355Z,86.49
2018-10-03T00:34:10.743Z,85.63
2018-10-03T00:34:51.138Z,85.15
2018-10-03T00:35:31.611Z,86.4
2018-10-03T00:36:12.027Z,86.21
2018-10-03T00:36:52.480Z,86.21
2018-10-03T00:37:33.174Z,85.72
2018-10-03T00:38:13.516Z,86.01
2018-10-03T00:38:53.992Z,85.25
2018-10-03T00:39:34.410Z,85.05
2018-10-03T00:40:14.816Z,84.67
2018-10-03T00:40:55.441Z,85.15
2018-10-03T00:41:35.960Z,85.15
2018-10-03T00:42:16.394Z,85.44
2018-10-03T00:42:56.848Z,86.01
2018-10-03T00:43:37.215Z,86.21
2018-10-03T00:44:17.674Z,85.92
2018-10-03T00:44:58.010Z,86.21
2018-10-03T00:45:38.455Z,86.3
2018-10-03T00:46:18.877Z,86.49
2018-10-03T00:46:59.271Z,87.07
2018-10-03T00:47:39.641Z,87.07
2018-10-03T00:48:20.081Z,86.97
2018-10-03T00:49:00.573Z,86.21
2018-10-03T00:49:41.787Z,86.21
2018-10-03T00:50:22.226Z,86.21
2018-10-03T00:51:02.592Z,86.49
2018-10-03T00:51:42.997Z,85.92
2018-10-03T00:52:23.414Z,85.25
2018-10-03T00:53:03.795Z,85.25
2018-10-03T00:53:44.252Z,85.44
2018-10-03T00:54:24.687Z,85.15
2018-10-03T00:55:05.134Z,85.34
2018-10-03T00:55:45.512Z,85.53
2018-10-03T00:56:25.886Z,84.95
2018-10-03T00:57:06.316Z,85.15
2018-10-03T00:57:46.916Z,84.58
2018-10-03T00:58:27.194Z,84.86
2018-10-03T00:59:07.598Z,84.86
2018-10-03T00:59:48.040Z,85.15
2018-10-03T01:00:28.441Z,84.58
2018-10-03T01:02:21.454Z,85.34
2018-10-03T01:03:01.637Z,85.53
2018-10-03T01:03:42.015Z,85.25
2018-10-03T01:04:22.507Z,85.05
2018-10-03T01:05:02.886Z,84.86
2018-10-03T01:05:43.325Z,85.15
2018-10-03T01:06:23.687Z,84.77
2018-10-03T01:07:04.684Z,84.86
2018-10-03T01:07:44.454Z,85.05
2018-10-03T01:08:24.878Z,85.25
2018-10-03T01:09:05.251Z,85.25
2018-10-03T01:09:45.683Z,85.15
2018-10-03T01:10:26.080Z,85.25
2018-10-03T01:11:06.510Z,85.53
2018-10-03T01:11:46.852Z,85.44
2018-10-03T01:12:27.300Z,84.95
2018-10-03T01:13:07.670Z,85.25
2018-10-03T01:13:48.195Z,85.05
2018-10-03T01:14:28.685Z,85.05
2018-10-03T01:15:09.101Z,85.34
2018-10-03T01:15:49.569Z,84.95
2018-10-03T01:16:29.915Z,84.77
2018-10-03T01:17:10.287Z,84.28
2018-10-03T01:17:50.749Z,84.67
2018-10-03T01:18:31.259Z,85.34
2018-10-03T01:19:11.522Z,85.05
2018-10-03T01:19:51.904Z,85.44
2018-10-03T01:20:32.551Z,85.15
2018-10-03T01:21:12.935Z,85.25
2018-10-03T01:21:53.294Z,85.34
2018-10-03T01:22:33.700Z,85.05
2018-10-03T01:23:14.098Z,85.53
2018-10-03T01:23:54.757Z,85.05
2018-10-03T01:24:35.158Z,85.25
2018-10-03T01:25:15.648Z,85.15
2018-10-03T01:25:56.018Z,85.15
2018-10-03T01:26:36.414Z,85.53
2018-10-03T01:27:16.861Z,85.15
2018-10-03T01:27:57.306Z,85.25
2018-10-03T01:28:37.691Z,85.34
2018-10-03T01:29:18.657Z,85.25
2018-10-03T01:29:59.137Z,85.25
2018-10-03T01:30:39.437Z,85.25
2018-10-03T01:31:19.892Z,84.95
2018-10-03T01:32:00.293Z,85.05
2018-10-03T01:32:40.654Z,85.15
2018-10-03T01:33:21.044Z,85.25
2018-10-03T01:34:01.455Z,85.25
2018-10-03T01:34:41.889Z,85.05
2018-10-03T01:35:22.295Z,86.01
2018-10-03T01:36:02.692Z,85.72
2018-10-03T01:36:43.044Z,85.92
2018-10-03T01:37:23.604Z,85.63
2018-10-03T01:38:04.188Z,85.92
2018-10-03T01:38:44.442Z,85.25
2018-10-03T01:39:25.056Z,85.82
2018-10-03T01:40:05.665Z,86.21
2018-10-03T01:40:46.119Z,86.93
2018-10-03T01:41:26.627Z,86.83
2018-10-03T01:42:07.086Z,86.25
2018-10-03T01:42:47.411Z,86.45
2018-10-03T01:43:27.792Z,86.49
2018-10-03T01:44:08.205Z,86.83
2018-10-03T01:44:48.702Z,85.92
2018-10-03T01:45:28.994Z,86.21
2018-10-03T01:46:09.862Z,85.72
2018-10-03T01:46:50.276Z,85.92
2018-10-03T01:47:30.725Z,85.88
2018-10-03T01:48:11.193Z,85.25
2018-10-03T01:48:51.556Z,85.15
2018-10-03T01:49:31.987Z,85.34
2018-10-03T01:50:12.410Z,85.92
2018-10-03T01:50:52.833Z,85.82
2018-10-03T01:51:33.479Z,85.78
2018-10-03T01:52:14.883Z,86.11
2018-10-03T01:52:55.554Z,85.82
2018-10-03T01:53:35.893Z,85.34
2018-10-03T01:54:16.285Z,85.15
2018-10-03T01:54:56.701Z,85.05
2018-10-03T01:55:38.077Z,85.25
2018-10-03T01:56:18.517Z,85.05
2018-10-03T01:56:58.994Z,85.34
2018-10-03T01:57:39.934Z,85.05
2018-10-03T01:58:21.042Z,85.05
2018-10-03T01:59:03.357Z,84.86
2018-10-03T01:59:43.734Z,84.86
2018-10-03T02:00:24.131Z,84.19
2018-10-03T02:01:04.661Z,84.38
2018-10-03T02:01:45.026Z,84.86
2018-10-03T02:02:25.503Z,84.38
2018-10-03T02:03:05.992Z,84.28
2018-10-03T02:03:46.301Z,84.77
2018-10-03T02:04:26.750Z,84.58
2018-10-03T02:05:07.224Z,85.25
2018-10-03T02:05:47.538Z,84.77
2018-10-03T02:06:27.967Z,84.09
2018-10-03T02:07:08.343Z,84.58
2018-10-03T02:07:48.741Z,84.95
2018-10-03T02:08:29.111Z,85.05
2018-10-03T02:09:09.514Z,84.67
2018-10-03T02:09:49.952Z,84.38
2018-10-03T02:10:30.336Z,84.28
2018-10-03T02:11:10.799Z,84.38
2018-10-03T02:11:51.193Z,84
2018-10-03T02:12:31.729Z,84.86
2018-10-03T02:13:12.084Z,84.44
2018-10-03T02:13:52.494Z,84.38
2018-10-03T02:14:32.978Z,84.44
2018-10-03T02:15:13.302Z,85.11
2018-10-03T02:15:53.821Z,84.91
2018-10-03T02:16:34.259Z,85.21
2018-10-03T02:17:14.611Z,85.01
2018-10-03T02:17:55.135Z,84.91
2018-10-03T02:18:35.569Z,85.01
2018-10-03T02:19:15.910Z,84.82
2018-10-03T02:19:56.298Z,84.72
2018-10-03T02:21:51.303Z,85.01
2018-10-03T02:23:53.646Z,85.01
2018-10-03T02:24:34.120Z,84.72
2018-10-03T02:25:14.550Z,85.21
2018-10-03T02:25:55.024Z,85.21
2018-10-03T02:26:35.411Z,85.11
2018-10-03T02:27:15.808Z,85.68
2018-10-03T02:27:56.191Z,85.21
2018-10-03T02:28:36.603Z,86.25
2018-10-03T02:29:17.052Z,85.88
2018-10-03T02:29:57.411Z,85.3
2018-10-03T02:30:37.819Z,86.07
2018-10-03T02:31:18.215Z,85.3
2018-10-03T02:31:58.639Z,85.21
2018-10-03T02:32:39.007Z,85.58
2018-10-03T02:33:19.388Z,84.91
2018-10-03T02:33:59.785Z,85.88
2018-10-03T02:34:40.310Z,85.49
2018-10-03T02:35:20.658Z,85.97
2018-10-03T02:36:00.987Z,85.68
2018-10-03T02:36:41.412Z,86.16
2018-10-03T02:37:21.769Z,86.16
2018-10-03T02:38:02.239Z,85.88
2018-10-03T02:38:42.734Z,86.25
2018-10-03T02:39:22.966Z,86.45
2018-10-03T02:40:03.402Z,86.35
2018-10-03T02:40:44.633Z,85.97
2018-10-03T02:41:25.049Z,85.49
2018-10-03T02:42:05.491Z,85.21
2018-10-03T02:42:45.935Z,85.21
2018-10-03T02:43:26.421Z,85.49
2018-10-03T02:44:06.832Z,84.91
2018-10-03T02:44:47.283Z,85.11
2018-10-03T02:46:45.811Z,85.21
2018-10-03T02:47:25.774Z,84.91
2018-10-03T02:48:06.191Z,85.21
2018-10-03T02:48:46.689Z,85.39
2018-10-03T02:49:27.022Z,85.58
2018-10-03T02:50:07.897Z,85.01
2018-10-03T02:50:48.433Z,85.21
2018-10-03T02:51:28.697Z,85.01
2018-10-03T02:52:09.134Z,85.39
2018-10-03T02:52:50.029Z,85.39
2018-10-03T02:53:30.383Z,85.21
2018-10-03T02:54:10.789Z,85.21
2018-10-03T02:54:51.178Z,85.39
2018-10-03T02:55:31.600Z,85.21
2018-10-03T02:56:11.982Z,85.3
2018-10-03T02:56:52.358Z,85.21
2018-10-03T02:57:32.752Z,85.78
2018-10-03T02:58:13.183Z,85.3
2018-10-03T02:58:53.600Z,85.78
2018-10-03T02:59:34.059Z,85.88
2018-10-03T03:00:14.586Z,86.07
2018-10-03T03:00:55.306Z,86.25
2018-10-03T03:01:35.577Z,85.88
2018-10-03T03:02:16.045Z,85.3
2018-10-03T03:02:56.311Z,85.49
2018-10-03T03:03:36.852Z,85.3
2018-10-03T03:04:17.217Z,85.88
2018-10-03T03:04:57.637Z,86.16
2018-10-03T03:05:37.970Z,85.01
2018-10-03T03:06:18.390Z,85.3
2018-10-03T03:06:58.838Z,85.78
2018-10-03T03:07:39.213Z,85.3
2018-10-03T03:08:19.659Z,85.97
2018-10-03T03:09:00.080Z,86.07
2018-10-03T03:09:40.460Z,86.07
2018-10-03T03:10:21.300Z,85.78
2018-10-03T03:11:01.660Z,85.88
2018-10-03T03:11:42.072Z,85.78
2018-10-03T03:12:22.853Z,85.11
2018-10-03T03:13:03.432Z,85.3
2018-10-03T03:13:43.875Z,86.16
2018-10-03T03:14:24.308Z,85.88
2018-10-03T03:15:04.695Z,86.16
2018-10-03T03:15:45.129Z,85.97
2018-10-03T03:16:25.530Z,85.68
2018-10-03T03:17:05.931Z,85.88
2018-10-03T03:17:46.452Z,85.88
2018-10-03T03:18:26.747Z,85.88
2018-10-03T03:19:07.155Z,85.88
2018-10-03T03:19:47.553Z,85.88
2018-10-03T03:20:27.982Z,86.07
2018-10-03T03:21:08.708Z,85.49
2018-10-03T03:21:48.917Z,85.21
2018-10-03T03:22:29.527Z,85.49
2018-10-03T03:23:09.752Z,85.21
2018-10-03T03:23:50.297Z,85.49
2018-10-03T03:24:30.598Z,85.11
2018-10-03T03:25:11.047Z,85.11
2018-10-03T03:25:51.402Z,85.01
2018-10-03T03:26:31.890Z,85.01
2018-10-03T03:27:12.558Z,84.91
2018-10-03T03:27:52.750Z,85.11
2018-10-03T03:28:33.202Z,85.78
2018-10-03T03:29:13.594Z,85.58
2018-10-03T03:29:53.997Z,85.01
2018-10-03T03:30:34.383Z,85.21
2018-10-03T03:31:14.785Z,85.11
2018-10-03T03:31:55.187Z,85.3
2018-10-03T03:32:35.615Z,85.01
2018-10-03T03:33:16.066Z,85.3
2018-10-03T03:33:56.456Z,85.21
2018-10-03T03:34:36.803Z,85.01
2018-10-03T03:35:17.264Z,84.82
2018-10-03T03:35:57.701Z,84.34
2018-10-03T03:36:38.149Z,84.91
2018-10-03T03:37:18.502Z,85.49
2018-10-03T03:37:58.994Z,85.3
2018-10-03T03:38:39.391Z,85.21
2018-10-03T03:39:19.896Z,85.21
2018-10-03T03:40:00.232Z,85.11
2018-10-03T03:40:40.686Z,85.35
2018-10-03T03:41:21.386Z,85.25
2018-10-03T03:42:01.810Z,85.45
2018-10-03T03:42:42.142Z,85.83
2018-10-03T03:43:22.542Z,85.83
2018-10-03T03:44:03.034Z,85.68
2018-10-03T03:44:43.345Z,86.02
2018-10-03T03:45:23.817Z,85.64
2018-10-03T03:46:04.221Z,85.88
2018-10-03T03:46:44.615Z,85.74
2018-10-03T03:47:24.983Z,85.74
2018-10-03T03:48:05.372Z,85.64
2018-10-03T03:48:45.836Z,86.31
2018-10-03T03:49:26.650Z,85.74
2018-10-03T03:50:06.667Z,86.31
2018-10-03T03:50:47.260Z,86.12
2018-10-03T03:51:28.442Z,86.02
2018-10-03T03:52:08.824Z,86.21
2018-10-03T03:52:49.314Z,86.12
2018-10-03T03:53:29.680Z,86.21
2018-10-03T03:54:10.193Z,86.12
2018-10-03T03:54:50.598Z,86.12
2018-10-03T03:55:30.979Z,86.12
2018-10-03T03:56:11.437Z,86.12
2018-10-03T03:56:51.769Z,86.12
2018-10-03T03:57:32.220Z,86.98
2018-10-03T03:58:12.644Z,86.31
2018-10-03T03:58:52.999Z,86.02
2018-10-03T04:01:52.999Z,86.21
2018-10-03T04:02:32.682Z,86.31
2018-10-03T04:03:13.090Z,86.88
2018-10-03T04:03:53.522Z,86.79
2018-10-03T04:04:33.854Z,86.6
2018-10-03T04:05:14.341Z,86.69
2018-10-03T04:05:54.628Z,87.13
2018-10-03T04:06:35.051Z,87.51
2018-10-03T04:07:15.491Z,87.7
2018-10-03T04:07:55.956Z,87.7
2018-10-03T04:08:36.301Z,87.51
2018-10-03T04:09:16.862Z,87.51
2018-10-03T04:09:57.395Z,87.51
2018-10-03T04:10:37.787Z,87.9
2018-10-03T04:11:18.539Z,87.51
2018-10-03T04:11:59.014Z,88.09
2018-10-03T04:12:39.740Z,87.99
2018-10-03T04:13:20.007Z,87.99
2018-10-03T04:14:00.372Z,88.18
2018-10-03T04:14:40.783Z,88.18
2018-10-03T04:15:21.193Z,87.99
2018-10-03T04:16:01.647Z,87.9
2018-10-03T04:16:42.085Z,87.99
2018-10-03T04:17:22.524Z,87.61
2018-10-03T04:18:02.899Z,87.9
2018-10-03T04:18:43.760Z,87.7
2018-10-03T04:19:24.141Z,87.51
2018-10-03T04:20:04.596Z,87.51
2018-10-03T04:20:45.124Z,86.94
2018-10-03T04:21:25.619Z,87.03
2018-10-03T04:22:05.986Z,87.41
2018-10-03T04:22:46.357Z,87.03
2018-10-03T04:23:26.736Z,87.23
2018-10-03T04:24:07.160Z,87.03
2018-10-03T04:24:47.609Z,86.84
2018-10-03T04:25:28.006Z,86.74
2018-10-03T04:26:08.423Z,86.74
2018-10-03T04:26:48.793Z,86.84
2018-10-03T04:27:29.207Z,86.74
2018-10-03T05:08:57.582Z,89.91
2018-10-03T05:09:41.561Z,90.1
2018-10-03T05:10:22.145Z,90.1
2018-10-03T05:11:02.495Z,89.43
2018-10-03T05:11:42.963Z,89.62
2018-10-03T05:12:23.410Z,89.91
2018-10-03T05:13:03.928Z,89.81
2018-10-03T05:13:44.207Z,89.34
2018-10-03T05:14:24.624Z,89.62
2018-10-03T05:15:05.069Z,89.34
2018-10-03T05:15:45.484Z,89.05
2018-10-03T05:16:25.959Z,89.72
2018-10-03T05:17:06.300Z,89.53
2018-10-03T05:17:46.838Z,89.62
2018-10-03T05:18:27.532Z,89.53
2018-10-03T05:19:08.099Z,89.62
2018-10-03T05:19:48.504Z,90.01
2018-10-03T05:20:28.912Z,89.24
2018-10-03T05:21:09.231Z,89.43
2018-10-03T05:21:49.827Z,89.62
2018-10-03T05:22:30.718Z,88.76
2018-10-03T05:23:10.924Z,88.67
2018-10-03T05:23:51.348Z,88.76
2018-10-03T05:24:31.768Z,88.29
2018-10-03T05:25:12.179Z,88.09
2018-10-03T05:25:52.574Z,88.57
2018-10-03T05:26:33.067Z,88
2018-10-03T05:27:13.440Z,87.76
2018-10-03T05:27:53.972Z,88.13
2018-10-03T05:28:34.259Z,87.08
2018-10-03T05:29:14.687Z,87.27
2018-10-03T05:29:55.075Z,87.18
2018-10-03T05:30:35.428Z,86.7
2018-10-03T05:31:15.968Z,86.99
2018-10-03T05:31:56.285Z,86.8
2018-10-03T05:32:36.723Z,86.61
2018-10-03T05:33:17.209Z,86.41
2018-10-03T05:33:57.503Z,86.61
2018-10-03T05:34:37.926Z,86.41
2018-10-03T05:35:18.342Z,86.7
2018-10-03T05:35:58.779Z,86.41
2018-10-03T05:36:39.190Z,86.8
2018-10-03T05:37:19.615Z,86.8
2018-10-03T05:38:00.035Z,86.41
2018-10-03T05:38:40.437Z,86.7
2018-10-03T05:39:20.806Z,86.04
2018-10-03T05:40:01.244Z,85.55
2018-10-03T05:40:41.634Z,85.75
2018-10-03T05:41:22.015Z,85.55
2018-10-03T05:42:02.413Z,85.84
2018-10-03T05:42:42.793Z,86.04
2018-10-03T05:43:23.308Z,85.75
2018-10-03T05:44:03.650Z,86.32
2018-10-03T05:44:44.010Z,85.55
2018-10-03T05:45:24.513Z,85.55
2018-10-03T05:46:04.812Z,86.04
2018-10-03T05:46:45.250Z,85.08
2018-10-03T05:47:25.624Z,85.08
2018-10-03T05:48:06.014Z,85.08
2018-10-03T05:48:46.549Z,84.98
2018-10-03T05:49:26.891Z,84.69
2018-10-03T05:50:07.219Z,84.22
2018-10-03T05:50:47.635Z,84.02
2018-10-03T05:51:28.010Z,84.35
2018-10-03T05:52:08.442Z,84.26
2018-10-03T05:52:48.888Z,83.78
2018-10-03T05:53:29.506Z,84.55
2018-10-03T05:54:10.020Z,83.97
2018-10-03T05:54:50.579Z,83.64
2018-10-03T05:55:30.831Z,83.54
2018-10-03T05:56:11.224Z,83.73
2018-10-03T05:56:51.656Z,84.06
2018-10-03T05:57:32.033Z,83.87
2018-10-03T05:58:12.499Z,82.92
2018-10-03T05:58:52.909Z,83.01
2018-10-03T05:59:33.244Z,82.73
2018-10-03T06:00:13.800Z,82.49
2018-10-03T06:00:54.185Z,82.78
2018-10-03T06:01:34.608Z,83.3
2018-10-03T06:02:15.266Z,83.11
2018-10-03T06:02:55.488Z,83.16
2018-10-03T06:03:35.866Z,83.16
2018-10-03T06:04:16.252Z,82.73
2018-10-03T06:04:58.200Z,83.2
2018-10-03T06:05:38.711Z,82.92
2018-10-03T06:06:19.090Z,82.63
2018-10-03T06:06:59.827Z,82.06
2018-10-03T06:07:40.246Z,82.01
2018-10-03T06:08:20.689Z,81.96
2018-10-03T06:09:01.073Z,82.06
2018-10-03T06:09:41.532Z,81.82
2018-10-03T06:10:21.931Z,81.67
2018-10-03T06:11:02.321Z,81.38
2018-10-03T06:11:42.761Z,81.77
2018-10-03T06:12:23.155Z,80.9
2018-10-03T06:13:03.526Z,81.86
2018-10-03T06:13:43.985Z,81.2
2018-10-03T06:14:24.366Z,81
2018-10-03T06:15:04.870Z,80.52
2018-10-03T06:15:45.264Z,80.62
2018-10-03T06:16:25.719Z,80.24
2018-10-03T06:17:06.092Z,80.14
2018-10-03T06:17:46.524Z,79.95
2018-10-03T06:18:26.995Z,79.66
2018-10-03T06:19:07.370Z,79.57
2018-10-03T06:19:47.785Z,79.66
2018-10-03T06:20:28.177Z,79.47
2018-10-03T06:21:08.607Z,79.03
2018-10-03T06:21:48.981Z,79.32
2018-10-03T06:22:29.387Z,78.45
2018-10-03T06:23:09.808Z,78.55
2018-10-03T06:23:50.193Z,77.78
2018-10-03T06:24:30.591Z,77.88
2018-10-03T06:25:10.996Z,77.69
2018-10-03T06:25:51.377Z,77.78
2018-10-03T06:26:31.858Z,77.69
2018-10-03T06:27:12.287Z,77.4
2018-10-03T06:27:52.812Z,76.82
2018-10-03T06:28:33.064Z,77.4
2018-10-03T06:29:13.440Z,76.92
2018-10-03T06:29:53.851Z,77.15
2018-10-03T06:30:34.228Z,76.29
2018-10-03T06:31:14.649Z,76
2018-10-03T06:31:55.057Z,75.9
2018-10-03T06:32:35.469Z,75.71
2018-10-03T06:33:15.890Z,75.71
2018-10-03T06:33:56.295Z,75.81
2018-10-03T06:34:36.748Z,75.43
2018-10-03T06:35:17.102Z,75.52
2018-10-03T06:35:57.483Z,75.39
2018-10-03T06:36:37.905Z,75.81
2018-10-03T06:37:18.280Z,75.62
2018-10-03T06:37:58.639Z,75.77
2018-10-03T06:38:39.043Z,75.71
2018-10-03T06:39:19.522Z,75.9
2018-10-03T06:39:59.874Z,75.71
2018-10-03T06:40:40.295Z,75.62
2018-10-03T06:41:20.760Z,75.62
2018-10-03T06:42:01.178Z,75.71
2018-10-03T06:42:41.525Z,75.23
2018-10-03T06:43:21.994Z,74.85
2018-10-03T06:44:02.452Z,75.23
2018-10-03T06:44:42.827Z,75.23
2018-10-03T06:45:23.296Z,74.95
2018-10-03T06:46:03.624Z,74.95
2018-10-03T06:46:44.268Z,74.76
2018-10-03T06:47:24.589Z,74.66
2018-10-03T06:48:05.546Z,74.57
2018-10-03T06:48:45.963Z,74.18
2018-10-03T06:49:26.334Z,74.18
2018-10-03T06:50:06.797Z,74.47
2018-10-03T06:50:47.174Z,73.9
2018-10-03T06:51:27.619Z,73.55
2018-10-03T06:52:08.034Z,74.08
2018-10-03T06:52:48.749Z,73.7
2018-10-03T06:53:28.915Z,74.02
2018-10-03T06:54:09.351Z,73.41
2018-10-03T06:54:49.747Z,73.8
2018-10-03T06:55:30.244Z,73.35
2018-10-03T06:56:10.563Z,73.65
2018-10-03T06:56:51.096Z,73.74
2018-10-03T06:57:31.452Z,73.07
2018-10-03T06:58:11.844Z,72.49
2018-10-03T06:58:52.259Z,73.16
2018-10-03T06:59:32.882Z,73.26
2018-10-03T07:00:13.224Z,72.72
2018-10-03T07:00:53.642Z,72.14
2018-10-03T07:01:34.047Z,71.86
2018-10-03T07:02:14.460Z,71.19
2018-10-03T07:02:54.891Z,70.99
2018-10-03T07:03:35.270Z,71.19
2018-10-03T07:04:15.955Z,70.51
2018-10-03T07:04:56.116Z,70.7
2018-10-03T07:05:36.662Z,70.51
2018-10-03T07:06:17.049Z,70.7
2018-10-03T07:06:57.490Z,71.28
2018-10-03T07:07:37.855Z,70.57
2018-10-03T07:08:18.265Z,71.57
2018-10-03T07:08:58.712Z,72.14
2018-10-03T07:09:39.551Z,71.15
2018-10-03T07:10:20.184Z,71.15
2018-10-03T07:11:00.622Z,71.72
2018-10-03T07:11:41.146Z,72.01
2018-10-03T07:12:21.465Z,72.11
2018-10-03T07:13:01.951Z,71.72
2018-10-03T07:13:42.940Z,72.01
2018-10-03T07:14:23.364Z,72.01
2018-10-03T07:15:04.121Z,72.2
2018-10-03T07:15:44.244Z,71.63
2018-10-03T07:16:24.721Z,71.34
2018-10-03T07:17:05.084Z,71.44
2018-10-03T07:17:45.463Z,71.44
2018-10-03T07:18:26.046Z,70.9
2018-10-03T07:19:06.436Z,70.7
2018-10-03T07:19:46.946Z,69.84
2018-10-03T07:20:27.276Z,69.93
2018-10-03T07:22:15.013Z,67.57
2018-10-03T07:23:10.735Z,67.32
2018-10-03T07:23:53.895Z,67.13
2018-10-03T07:24:34.456Z,66.07
2018-10-03T07:25:14.945Z,66.84
2018-10-03T07:25:55.489Z,66.55
2018-10-03T07:26:35.930Z,66.26
2018-10-03T07:27:16.383Z,66.26
2018-10-03T07:27:57.704Z,65.4
2018-10-03T07:28:38.193Z,65.3
2018-10-03T07:29:21.204Z,65.33
2018-10-03T07:30:01.599Z,65.05
2018-10-03T07:30:41.998Z,64.66
2018-10-03T07:31:22.433Z,64.56
2018-10-03T07:32:02.979Z,64.28
2018-10-03T07:32:43.409Z,63.7
2018-10-03T07:33:23.758Z,63.41
2018-10-03T07:34:04.207Z,63.51
2018-10-03T07:34:44.593Z,63.6
2018-10-03T07:35:26.016Z,63.12
2018-10-03T07:36:06.598Z,63.32
2018-10-03T07:36:47.016Z,63.7
2018-10-03T07:37:27.441Z,63.6
2018-10-03T07:38:07.917Z,63.32
2018-10-03T07:38:48.257Z,63.79
2018-10-03T07:39:28.973Z,63.99
2018-10-03T07:40:09.760Z,63.7
2018-10-03T07:40:50.203Z,63.79
2018-10-03T07:41:30.595Z,63.79
2018-10-03T07:42:10.988Z,64.34
2018-10-03T07:42:51.732Z,64.53
2018-10-03T07:43:32.152Z,65.11
2018-10-03T07:44:12.790Z,65.3
2018-10-03T07:44:53.050Z,65.2
2018-10-03T07:45:33.419Z,65.11
2018-10-03T07:46:14.138Z,64.63
2018-10-03T07:46:54.581Z,65.27
2018-10-03T07:47:35.041Z,65.2
2018-10-03T07:48:15.394Z,65.75
2018-10-03T07:48:55.871Z,65.08
2018-10-03T07:49:36.299Z,65.84
2018-10-03T07:50:16.726Z,66.23
2018-10-03T07:50:57.111Z,65.56
2018-10-03T07:51:37.609Z,66.13
2018-10-03T07:52:17.986Z,65.75
2018-10-03T07:52:58.486Z,65.84
2018-10-03T07:53:38.980Z,66.13
2018-10-03T07:54:19.309Z,66.71
2018-10-03T07:55:00.602Z,66.23
2018-10-03T07:55:40.886Z,65.94
2018-10-03T07:56:21.337Z,65.65
2018-10-03T07:57:01.925Z,65.94
2018-10-03T07:57:42.392Z,66.03
2018-10-03T07:58:22.821Z,66.1
2018-10-03T07:59:03.500Z,66.67
2018-10-03T07:59:44.173Z,67.09
2018-10-03T08:00:24.594Z,66.71
2018-10-03T08:01:04.975Z,66.67
2018-10-03T08:01:46.094Z,66.67
2018-10-03T08:03:40.875Z,67.16
2018-10-03T08:04:23.017Z,66.52
2018-10-03T08:05:03.398Z,66.42
2018-10-03T08:06:57.311Z,66.52
2018-10-03T08:07:39.176Z,66.13
2018-10-03T08:09:27.208Z,65.75
2018-10-03T08:10:07.805Z,65.84
2018-10-03T08:10:47.893Z,65.27
2018-10-03T08:11:28.824Z,65.17
2018-10-03T08:12:08.785Z,65.94
2018-10-03T08:12:49.211Z,65.65
2018-10-03T08:13:29.658Z,66.19
2018-10-03T08:14:10.092Z,66.23
2018-10-03T08:14:50.520Z,66.1
2018-10-03T08:15:30.899Z,66.13
2018-10-03T08:16:11.323Z,66.03
2018-10-03T08:16:51.678Z,66.33
2018-10-03T08:17:32.158Z,66.1
2018-10-03T08:18:12.521Z,66.29
2018-10-03T08:18:52.880Z,66.19
2018-10-03T08:19:33.333Z,66.19
2018-10-03T08:20:13.846Z,66.52
2018-10-03T08:20:54.250Z,66.42
2018-10-03T08:21:34.629Z,66.13
2018-10-03T08:22:16.243Z,65.94
2018-10-03T08:22:56.144Z,65.56
2018-10-03T08:23:36.565Z,66.03
2018-10-03T08:24:17.024Z,66.13
2018-10-03T08:24:57.381Z,66.13
2018-10-03T08:25:37.927Z,65.65
2018-10-03T08:26:18.291Z,65.84
2018-10-03T08:26:59.488Z,65.27
2018-10-03T08:27:39.913Z,65.17
2018-10-03T08:28:20.335Z,65.27
2018-10-03T08:29:01.052Z,65.36
2018-10-03T08:29:41.266Z,65.08
2018-10-03T08:30:21.719Z,65.17
2018-10-03T08:31:02.107Z,65.56
2018-10-03T08:31:42.552Z,64.98
2018-10-03T08:32:23.063Z,65.08
2018-10-03T08:33:03.429Z,65.08
2018-10-03T08:33:43.798Z,65.27
2018-10-03T08:34:24.249Z,64.98
2018-10-03T08:35:04.630Z,64.25
2018-10-03T08:35:45.075Z,64.02
2018-10-03T08:36:25.507Z,64.22
2018-10-03T08:37:05.911Z,64.25
2018-10-03T08:37:46.350Z,64.15
2018-10-03T08:38:26.760Z,64.63
2018-10-03T08:39:07.688Z,63.86
2018-10-03T08:39:48.135Z,63.76
2018-10-03T08:40:28.590Z,63.57
2018-10-03T08:41:08.960Z,63.28
2018-10-03T08:41:49.598Z,63.48
2018-10-03T08:42:29.981Z,63.19
2018-10-03T08:43:10.711Z,62.81
2018-10-03T08:43:51.345Z,62.99
2018-10-03T08:46:32.518Z,62.9
2018-10-03T08:47:14.117Z,62.99
2018-10-03T08:47:57.324Z,62.61
2018-10-03T08:48:38.001Z,62.23
2018-10-03T08:49:19.750Z,62.04
2018-10-03T08:50:01.113Z,62.04
2018-10-03T08:50:42.142Z,61.65
2018-10-03T08:51:25.041Z,61.65
2018-10-03T08:52:05.419Z,62.35
2018-10-03T08:52:46.112Z,61.49
2018-10-03T08:53:26.417Z,61.3
2018-10-03T08:54:06.789Z,60.91
2018-10-03T08:54:48.224Z,61.11
2018-10-03T08:55:29.714Z,60.63
2018-10-03T08:56:10.172Z,60.53
2018-10-03T08:56:50.552Z,60.43
2018-10-03T08:57:31.062Z,60.05
2018-10-03T08:58:12.644Z,60.24
2018-10-03T08:58:53.652Z,60.63
2018-10-03T08:59:34.042Z,60.08
2018-10-03T09:00:15.003Z,59.79
2018-10-03T09:00:55.332Z,59.24
2018-10-03T09:01:35.728Z,58.57
2018-10-03T09:02:16.389Z,57.54
2018-10-03T09:02:57.309Z,56.87
2018-10-03T09:03:38.055Z,56.38
2018-10-03T09:04:19.404Z,56.1
2018-10-03T09:05:00.061Z,55.83
2018-10-03T09:05:41.102Z,55.45
2018-10-03T09:06:21.766Z,54.87
2018-10-03T09:07:03.193Z,54.61
2018-10-03T09:07:43.218Z,54.03
2018-10-03T09:08:24.472Z,53.48
2018-10-03T09:09:05.289Z,52.61
2018-10-03T09:09:46.606Z,51.94
2018-10-03T09:10:28.154Z,52.04
2018-10-03T09:11:08.656Z,51.65
2018-10-03T09:11:49.610Z,52.04
2018-10-03T09:12:30.299Z,51.65
2018-10-03T09:13:11.037Z,52.23
2018-10-03T09:13:54.264Z,51.36
2018-10-03T09:14:34.680Z,51.75
2018-10-03T09:15:15.650Z,51.36
2018-10-03T09:15:56.727Z,51.36
2018-10-03T09:16:37.440Z,51.17
2018-10-03T09:17:17.899Z,51.56
2018-10-03T09:17:58.309Z,51.65
2018-10-03T09:18:38.904Z,51.65
2018-10-03T09:19:19.240Z,51.17
2018-10-03T09:20:00.040Z,50.49
2018-10-03T09:20:40.522Z,50.32
2018-10-03T09:21:21.473Z,50.42
2018-10-03T09:22:02.414Z,50.42
2018-10-03T09:22:43.680Z,50.06
2018-10-03T09:23:24.023Z,49.58
2018-10-03T09:24:04.644Z,49.22
2018-10-03T09:24:45.381Z,48.16
2018-10-03T09:25:31.801Z,47.29
2018-10-03T09:28:36.081Z,45.86
2018-10-03T09:29:16.242Z,45.86
2018-10-03T09:29:56.589Z,45.76
2018-10-03T09:30:37.152Z,45.67
2018-10-03T09:31:17.465Z,45.67
2018-10-03T09:31:57.916Z,45.09
2018-10-03T09:32:39.509Z,45.76
2018-10-03T09:33:20.141Z,45.86
2018-10-03T09:34:00.589Z,45.96
2018-10-03T09:34:41.145Z,45.76
2018-10-03T09:38:26.283Z,45.38
2018-10-03T09:39:06.750Z,45.38
2018-10-03T09:39:47.248Z,45.28
2018-10-03T09:40:28.132Z,44.49
2018-10-03T09:41:09.021Z,44.87
2018-10-03T09:41:49.183Z,45.36
2018-10-03T09:42:30.048Z,45.84
2018-10-03T09:43:10.505Z,45.72
2018-10-03T09:43:51.238Z,45.72
2018-10-03T09:44:31.743Z,45.72